Pagina principale
METAR-TAF:

METAR-TAF

Aeroporti :

Aeroporto di Bergamo-Orio al Serio

Bergamo, Italia

latitudine: 45-40N, longitudine: 009-42E, altezza: 238 m

Osservazione

Il bollettino è stato emesso 41 minuti fa, alle 12:20 UTC
Vento 4 kt da sud, variando fra sud/sud-est e ovest/sud-ovest
Temperature 9°C
Umidità 71%
Pressione 1015 hPa
Visibilità 10 km o più
nessuna nube inferiore a 1500 m e nessun cumulonembo

METAR: LIME 061220Z 19004KT 150V240 CAVOK 09/04 Q1015 NOSIG

Ora: 14:01 (13:01 UTC)

Previsione

Il bollettino è stato emesso 2 ore e 1 minuti fa, alle 11:00 UTC
Previsione valida dal 06 alle 12 UTC al 07 alle 12 UTC
Vento 4 kt da direzioni variabili
Visibilità 10 km o più
nessuna nube inferiore a 1500 m e nessun cumulonembo

TAF: LIME 061100Z 0612/0712 VRB04KT CAVOK

Osservazioni e previsioni meteorologiche di più di 4000 aeroporti (messaggi METAR e TAF).

Le stazioni disponibili sono rappresentate dai dischi gialli e rossi sulla carta.

Puntare il mouse per vedere il nome della stazione.

Clicca sopra per visualizzare le osservazioni e previsioni meteorologiche.

Per cambiare la mappa : fare clic sui pulsanti verdi con una croce nera per ingrandire, il pulsante verde con un trattino per diminuire, o sulla freccia verde per le mappe adiacenti.


METAR-TAF: